createdAt,value
2023-04-18T00:00:36.890Z,2.53
2023-04-18T00:03:04.590Z,2.67
2023-04-18T00:05:31.674Z,4.78
2023-04-18T00:07:58.286Z,3.30
2023-04-18T00:10:24.976Z,3.03
2023-04-18T00:12:51.549Z,3.05
2023-04-18T00:15:21.188Z,2.53
2023-04-18T00:17:48.368Z,3.13
2023-04-18T00:20:15.153Z,4.13
2023-04-18T00:22:42.830Z,3.33
2023-04-18T00:25:10.671Z,3.90
2023-04-18T00:27:39.204Z,2.92
2023-04-18T00:30:07.146Z,1.98
2023-04-18T00:32:34.949Z,2.97
2023-04-18T00:35:01.850Z,2.72
2023-04-18T00:37:30.056Z,2.05
2023-04-18T00:39:56.646Z,4.00
2023-04-18T00:42:25.452Z,2.63
2023-04-18T00:44:54.877Z,2.78
2023-04-18T00:47:21.564Z,2.75
2023-04-18T00:49:48.583Z,5.93
2023-04-18T00:52:16.750Z,5.38
2023-04-18T00:54:44.813Z,2.33
2023-04-18T00:57:12.438Z,3.17
2023-04-18T00:59:39.281Z,3.45
2023-04-18T01:02:06.038Z,3.35
2023-04-18T01:04:32.869Z,2.55
2023-04-18T01:07:01.512Z,3.13
2023-04-18T01:09:28.740Z,2.67
2023-04-18T01:11:55.503Z,2.28
2023-04-18T01:14:22.393Z,4.35
2023-04-18T01:16:49.254Z,2.30
2023-04-18T01:19:19.503Z,2.92
2023-04-18T01:21:46.120Z,4.35
2023-04-18T01:24:17.148Z,4.18
2023-04-18T01:26:47.619Z,3.03
2023-04-18T01:29:14.404Z,3.53
2023-04-18T01:31:41.651Z,2.35
2023-04-18T01:34:08.661Z,5.70
2023-04-18T01:36:36.415Z,3.38
2023-04-18T01:39:03.580Z,2.70
2023-04-18T01:41:32.693Z,2.53
2023-04-18T01:43:59.993Z,3.45
2023-04-18T01:46:27.165Z,2.88
2023-04-18T01:48:53.954Z,3.72
2023-04-18T01:51:20.636Z,3.55
2023-04-18T01:53:47.291Z,2.00
2023-04-18T01:56:13.972Z,3.10
2023-04-18T01:58:41.698Z,2.88
2023-04-18T02:01:10.828Z,2.17
2023-04-18T02:03:37.733Z,2.97
2023-04-18T02:06:05.733Z,3.05
2023-04-18T02:08:35.613Z,5.00
2023-04-18T02:11:02.688Z,3.75
2023-04-18T02:13:29.298Z,3.08
2023-04-18T02:15:55.984Z,4.57
2023-04-18T02:18:24.829Z,2.55
2023-04-18T02:20:52.073Z,3.05
2023-04-18T02:23:19.219Z,1.90
2023-04-18T02:25:45.865Z,2.40
2023-04-18T02:28:12.482Z,2.22
2023-04-18T02:30:39.121Z,4.50
2023-04-18T02:33:05.792Z,2.55
2023-04-18T02:35:32.501Z,3.15
2023-04-18T02:37:59.092Z,3.05
2023-04-18T02:40:25.699Z,2.92
2023-04-18T02:42:52.345Z,2.40
2023-04-18T02:45:19.083Z,4.35
2023-04-18T02:47:54.335Z,3.50
2023-04-18T02:50:22.701Z,2.85
2023-04-18T02:52:49.347Z,3.00
2023-04-18T02:55:16.273Z,1.92
2023-04-18T02:57:43.213Z,3.25
2023-04-18T03:00:10.385Z,2.83
2023-04-18T03:02:37.222Z,2.53
2023-04-18T03:05:04.230Z,4.88
2023-04-18T03:07:31.097Z,3.60
2023-04-18T03:09:58.046Z,3.90
2023-04-18T03:12:24.685Z,3.53
2023-04-18T03:14:54.398Z,3.58
2023-04-18T03:17:21.244Z,3.40
2023-04-18T03:19:47.932Z,4.75
2023-04-18T03:22:16.151Z,2.83
2023-04-18T03:24:42.823Z,2.75
2023-04-18T03:27:09.440Z,3.63
2023-04-18T03:29:36.149Z,2.58
2023-04-18T03:32:02.871Z,3.70
2023-04-18T03:34:29.782Z,2.83
2023-04-18T03:36:56.615Z,3.33
2023-04-18T03:39:23.197Z,3.50
2023-04-18T03:41:49.984Z,3.67
2023-04-18T03:44:19.217Z,5.70
2023-04-18T03:46:46.066Z,1.92
2023-04-18T03:49:12.833Z,3.55
2023-04-18T03:51:44.504Z,3.58
2023-04-18T03:54:11.341Z,5.10
2023-04-18T03:56:38.171Z,2.95
2023-04-18T03:59:04.793Z,3.65
2023-04-18T04:01:31.670Z,2.75
2023-04-18T04:03:58.511Z,3.50
2023-04-18T04:06:26.336Z,5.13
2023-04-18T04:08:53.503Z,2.50
2023-04-18T04:11:20.159Z,6.63
2023-04-18T04:13:46.729Z,3.75
2023-04-18T04:16:13.521Z,3.95
2023-04-18T04:18:40.300Z,3.50
2023-04-18T04:21:06.895Z,3.10
2023-04-18T04:23:34.345Z,5.97
2023-04-18T04:26:04.703Z,3.83
2023-04-18T04:28:31.692Z,4.28
2023-04-18T04:30:58.410Z,7.78
2023-04-18T04:33:28.771Z,4.30
2023-04-18T04:35:55.792Z,2.47
2023-04-18T04:38:25.161Z,5.40
2023-04-18T04:40:53.000Z,4.82
2023-04-18T04:43:20.570Z,6.20
2023-04-18T04:45:51.764Z,4.93
2023-04-18T04:48:20.014Z,4.95
2023-04-18T04:50:55.139Z,6.30
2023-04-18T04:53:22.483Z,6.38
2023-04-18T04:55:49.435Z,3.85
2023-04-18T04:58:16.334Z,4.88
2023-04-18T05:00:43.058Z,4.07
2023-04-18T05:03:10.784Z,3.60
2023-04-18T05:05:37.799Z,3.28
2023-04-18T05:08:04.652Z,5.10
2023-04-18T05:10:31.300Z,3.28
2023-04-18T05:12:57.992Z,2.78
2023-04-18T05:15:25.115Z,4.07
2023-04-18T05:17:54.740Z,1.92
2023-04-18T05:20:21.523Z,3.58
2023-04-18T05:22:48.162Z,3.25
2023-04-18T05:25:14.858Z,3.53
2023-04-18T05:27:41.860Z,4.20
2023-04-18T05:30:08.912Z,4.75
2023-04-18T05:32:35.681Z,4.00
2023-04-18T05:35:02.409Z,2.55
2023-04-18T05:37:29.074Z,5.15
2023-04-18T05:39:55.803Z,4.07
2023-04-18T05:42:22.467Z,8.63
2023-04-18T05:44:49.084Z,3.42
2023-04-18T05:47:16.899Z,3.25
2023-04-18T05:49:43.944Z,4.22
2023-04-18T05:52:11.476Z,5.57
2023-04-18T05:54:38.127Z,6.32
2023-04-18T05:57:04.985Z,5.85
2023-04-18T05:59:31.646Z,3.60
2023-04-18T06:01:58.208Z,3.58
2023-04-18T06:04:25.035Z,5.05
2023-04-18T06:06:51.966Z,5.57
2023-04-18T06:09:18.596Z,4.30
2023-04-18T06:11:45.484Z,4.88
2023-04-18T06:14:15.224Z,6.60
2023-04-18T06:16:42.251Z,7.43
2023-04-18T06:19:08.884Z,4.30
2023-04-18T06:21:35.603Z,5.32
2023-04-18T06:24:02.437Z,5.15
2023-04-18T06:26:30.219Z,3.38
2023-04-18T06:28:58.406Z,5.88
2023-04-18T06:31:25.136Z,4.78
2023-04-18T06:33:51.798Z,4.55
2023-04-18T06:36:18.711Z,6.00
2023-04-18T06:38:49.956Z,3.65
2023-04-18T06:41:16.592Z,5.05
2023-04-18T06:43:55.714Z,5.82
2023-04-18T06:46:29.474Z,7.82
2023-04-18T06:48:56.258Z,4.85
2023-04-18T06:51:22.867Z,8.20
2023-04-18T06:53:52.794Z,6.07
2023-04-18T06:56:20.819Z,5.25
2023-04-18T06:58:48.232Z,5.60
2023-04-18T07:01:14.888Z,5.07
2023-04-18T07:03:41.647Z,6.72
2023-04-18T07:06:10.590Z,6.47
2023-04-18T07:08:37.819Z,6.05
2023-04-18T07:11:07.433Z,7.05
2023-04-18T07:13:34.065Z,6.03
2023-04-18T07:16:01.693Z,9.50
2023-04-18T07:18:37.425Z,6.35
2023-04-18T07:21:07.702Z,7.45
2023-04-18T07:23:39.229Z,7.15
2023-04-18T07:26:06.645Z,6.32
2023-04-18T07:28:33.379Z,6.28
2023-04-18T07:31:03.804Z,6.07
2023-04-18T07:33:33.965Z,5.47
2023-04-18T07:36:06.107Z,8.35
2023-04-18T07:38:34.855Z,7.78
2023-04-18T07:41:03.010Z,7.57
2023-04-18T07:43:29.934Z,7.07
2023-04-18T07:45:56.810Z,9.15
2023-04-18T07:48:23.485Z,18.70
2023-04-18T07:50:50.124Z,6.70
2023-04-18T07:53:17.121Z,6.55
2023-04-18T07:55:43.756Z,12.60
2023-04-18T07:58:10.556Z,7.13
2023-04-18T08:00:39.331Z,9.23
2023-04-18T08:03:07.812Z,7.45
2023-04-18T08:05:34.806Z,6.80
2023-04-18T08:08:01.681Z,8.13
2023-04-18T08:10:28.630Z,6.35
2023-04-18T08:12:55.243Z,10.05
2023-04-18T08:15:21.838Z,7.15
2023-04-18T08:17:49.229Z,6.43
2023-04-18T08:20:15.978Z,8.20
2023-04-18T08:22:57.706Z,4.97
2023-04-18T08:25:29.715Z,6.43
2023-04-18T08:27:56.310Z,7.72
2023-04-18T08:30:22.964Z,6.43
2023-04-18T08:32:49.958Z,5.60
2023-04-18T08:35:16.756Z,7.85
2023-04-18T08:37:43.552Z,6.50
2023-04-18T08:40:10.410Z,8.27
2023-04-18T08:42:46.020Z,7.15
2023-04-18T08:45:16.406Z,6.55
2023-04-18T08:47:43.159Z,7.20
2023-04-18T08:50:10.619Z,7.35
2023-04-18T08:52:39.861Z,6.05
2023-04-18T08:55:07.421Z,6.43
2023-04-18T08:57:37.198Z,6.28
2023-04-18T09:00:10.441Z,11.30
2023-04-18T09:02:45.255Z,5.82
2023-04-18T09:05:18.886Z,4.72
2023-04-18T09:07:46.819Z,6.93
2023-04-18T09:10:13.964Z,8.55
2023-04-18T09:12:50.656Z,13.30
2023-04-18T09:15:20.916Z,6.03
2023-04-18T09:17:51.019Z,5.68
2023-04-18T09:20:41.167Z,9.65
2023-04-18T09:23:10.797Z,6.22
2023-04-18T09:25:45.078Z,8.93
2023-04-18T09:28:27.076Z,7.95
2023-04-18T09:30:54.642Z,6.82
2023-04-18T09:33:34.791Z,5.20
2023-04-18T09:36:28.515Z,7.38
2023-04-18T09:38:56.703Z,5.68
2023-04-18T09:41:24.389Z,7.45
2023-04-18T09:44:11.654Z,6.15
2023-04-18T09:46:40.161Z,11.00
2023-04-18T09:49:08.472Z,5.15
2023-04-18T09:51:38.387Z,5.15
2023-04-18T09:54:05.924Z,4.88
2023-04-18T09:56:34.614Z,5.07
2023-04-18T09:59:10.167Z,5.38
2023-04-18T10:01:37.881Z,6.20
2023-04-18T10:04:09.181Z,6.82
2023-04-18T10:06:42.446Z,8.90
2023-04-18T10:09:09.963Z,6.53
2023-04-18T10:11:36.934Z,3.95
2023-04-18T10:14:09.869Z,5.40
2023-04-18T10:16:37.625Z,6.25
2023-04-18T10:19:30.788Z,7.97
2023-04-18T10:22:01.987Z,3.90
2023-04-18T10:24:49.968Z,6.57
2023-04-18T10:27:17.838Z,6.20
2023-04-18T10:29:52.419Z,5.30
2023-04-18T10:32:22.724Z,8.40
2023-04-18T10:34:50.504Z,4.75
2023-04-18T10:37:19.084Z,4.20
2023-04-18T10:39:57.097Z,6.50
2023-04-18T10:42:48.373Z,6.13
2023-04-18T10:45:25.146Z,6.95
2023-04-18T10:48:30.839Z,5.50
2023-04-18T10:53:56.566Z,4.25
2023-04-18T10:56:23.704Z,5.50
2023-04-18T10:58:51.790Z,5.20
2023-04-18T11:01:31.705Z,4.20
2023-04-18T11:04:01.810Z,7.25
2023-04-18T11:06:29.094Z,4.57
2023-04-18T11:09:12.286Z,5.50
2023-04-18T11:11:38.988Z,6.90
2023-04-18T11:14:05.693Z,5.43
2023-04-18T11:16:42.487Z,4.85
2023-04-18T11:19:21.385Z,6.13
2023-04-18T11:21:48.187Z,6.55
2023-04-18T11:24:24.442Z,7.22
2023-04-18T11:26:56.379Z,8.75
2023-04-18T11:29:23.209Z,8.70
2023-04-18T11:31:55.850Z,5.95
2023-04-18T11:34:30.508Z,5.75
2023-04-18T11:36:57.956Z,7.75
2023-04-18T11:39:24.629Z,6.80
2023-04-18T11:41:51.464Z,6.72
2023-04-18T11:44:23.058Z,8.15
2023-04-18T11:46:53.124Z,8.32
2023-04-18T11:49:30.406Z,7.15
2023-04-18T11:51:57.554Z,8.00
2023-04-18T11:54:39.131Z,7.45
2023-04-18T11:57:06.687Z,6.18
2023-04-18T11:59:33.463Z,7.25
2023-04-18T12:02:15.302Z,11.00
2023-04-18T12:05:00.381Z,10.77
2023-04-18T12:07:32.228Z,10.90
2023-04-18T12:09:59.114Z,7.40
2023-04-18T12:12:29.114Z,8.05
2023-04-18T12:15:07.344Z,6.65
2023-04-18T12:17:36.210Z,9.60
2023-04-18T12:20:04.902Z,7.65
2023-04-18T12:22:40.127Z,13.98
2023-04-18T12:25:27.104Z,8.05
2023-04-18T12:28:15.173Z,9.98
2023-04-18T12:30:42.431Z,9.80
2023-04-18T12:33:11.611Z,8.95
2023-04-18T12:35:38.270Z,6.75
2023-04-18T12:38:05.990Z,9.32
2023-04-18T12:40:32.629Z,10.88
2023-04-18T12:43:00.545Z,9.02
2023-04-18T12:45:28.160Z,7.97
2023-04-18T12:47:54.866Z,12.98
2023-04-18T12:50:26.149Z,16.27
2023-04-18T12:52:57.011Z,9.82
2023-04-18T12:55:26.555Z,7.72
2023-04-18T12:57:58.180Z,9.00
2023-04-18T13:00:32.841Z,8.50
2023-04-18T13:03:00.040Z,12.07
2023-04-18T13:05:31.623Z,9.77
2023-04-18T13:08:15.287Z,10.88
2023-04-18T13:10:43.465Z,9.10
2023-04-18T13:13:10.101Z,14.00
2023-04-18T13:15:36.687Z,8.52
2023-04-18T13:18:06.356Z,7.40
2023-04-18T13:20:33.995Z,9.80
2023-04-18T13:23:02.688Z,9.27
2023-04-18T13:25:29.601Z,10.75
2023-04-18T13:27:58.506Z,16.10
2023-04-18T13:30:25.408Z,7.55
2023-04-18T13:32:52.333Z,10.82
2023-04-18T13:35:19.132Z,12.90
2023-04-18T13:37:46.320Z,11.63
2023-04-18T13:40:13.614Z,9.77
2023-04-18T13:42:40.483Z,7.95
2023-04-18T13:45:07.751Z,10.77
2023-04-18T13:47:35.066Z,8.88
2023-04-18T13:50:01.853Z,7.68
2023-04-18T13:52:28.631Z,9.15
2023-04-18T13:54:55.473Z,6.85
2023-04-18T13:57:23.164Z,7.88
2023-04-18T13:59:52.644Z,11.50
2023-04-18T14:02:19.480Z,12.75
2023-04-18T14:04:46.596Z,10.43
2023-04-18T14:07:14.730Z,11.95
2023-04-18T14:09:41.405Z,7.15
2023-04-18T14:12:10.687Z,6.90
2023-04-18T14:14:37.345Z,9.27
2023-04-18T14:17:03.977Z,9.55
2023-04-18T14:19:32.105Z,7.28
2023-04-18T14:21:59.197Z,9.98
2023-04-18T14:24:26.291Z,11.05
2023-04-18T14:26:55.582Z,8.00
2023-04-18T14:29:22.215Z,10.05
2023-04-18T14:31:49.062Z,9.00
2023-04-18T14:34:15.804Z,11.90
2023-04-18T14:36:42.368Z,8.32
2023-04-18T14:39:09.167Z,9.48
2023-04-18T14:41:35.902Z,9.35
2023-04-18T14:44:04.138Z,10.80
2023-04-18T14:46:31.233Z,8.80
2023-04-18T14:48:58.274Z,9.52
2023-04-18T14:51:24.882Z,10.55
2023-04-18T14:53:51.833Z,10.00
2023-04-18T14:56:21.160Z,16.00
2023-04-18T14:58:50.838Z,7.40
2023-04-18T15:01:17.655Z,8.00
2023-04-18T15:03:48.047Z,7.03
2023-04-18T15:06:14.737Z,6.85
2023-04-18T15:08:44.173Z,6.78
2023-04-18T15:11:11.316Z,9.02
2023-04-18T15:13:37.980Z,8.23
2023-04-18T15:16:04.960Z,10.82
2023-04-18T15:18:31.529Z,10.55
2023-04-18T15:21:00.065Z,12.10
2023-04-18T15:23:27.662Z,6.50
2023-04-18T15:25:54.351Z,10.95
2023-04-18T15:28:21.030Z,7.97
2023-04-18T15:30:50.641Z,9.55
2023-04-18T15:33:19.186Z,13.45
2023-04-18T15:35:46.981Z,12.43
2023-04-18T15:38:14.014Z,9.35
2023-04-18T15:40:40.924Z,10.50
2023-04-18T15:43:07.607Z,10.20
2023-04-18T15:45:34.249Z,6.22
2023-04-18T15:48:00.998Z,7.20
2023-04-18T15:50:27.774Z,25.23
2023-04-18T15:52:54.540Z,10.88
2023-04-18T15:55:21.303Z,8.98
2023-04-18T15:57:47.884Z,9.63
2023-04-18T16:00:17.686Z,9.82
2023-04-18T16:02:45.137Z,10.65
2023-04-18T16:05:12.946Z,13.60
2023-04-18T16:07:40.383Z,11.20
2023-04-18T16:10:11.252Z,10.38
2023-04-18T16:12:39.497Z,8.38
2023-04-18T16:15:08.722Z,8.88
2023-04-18T16:17:36.967Z,10.20
2023-04-18T16:20:04.475Z,11.75
2023-04-18T16:22:33.723Z,12.05
2023-04-18T16:25:03.265Z,7.65
2023-04-18T16:27:30.021Z,9.85
2023-04-18T16:29:56.812Z,9.15
2023-04-18T16:32:23.512Z,9.32
2023-04-18T16:34:50.215Z,11.18
2023-04-18T16:37:16.907Z,12.45
2023-04-18T16:39:43.593Z,11.90
2023-04-18T16:42:14.872Z,9.90
2023-04-18T16:44:42.224Z,7.88
2023-04-18T16:47:08.959Z,12.75
2023-04-18T16:49:38.683Z,13.32
2023-04-18T16:52:08.357Z,10.48
2023-04-18T16:54:35.391Z,11.48
2023-04-18T16:57:02.879Z,6.50
2023-04-18T16:59:29.461Z,7.50
2023-04-18T17:01:56.264Z,8.23
2023-04-18T17:04:23.561Z,7.25
2023-04-18T17:06:52.099Z,9.25
2023-04-18T17:09:19.852Z,7.88
2023-04-18T17:11:46.585Z,7.95
2023-04-18T17:14:13.574Z,7.10
2023-04-18T17:16:42.303Z,7.85
2023-04-18T17:19:10.233Z,9.93
2023-04-18T17:21:37.704Z,8.68
2023-04-18T17:24:06.792Z,7.22
2023-04-18T17:26:34.789Z,7.88
2023-04-18T17:29:03.255Z,6.35
2023-04-18T17:31:32.973Z,7.63
2023-04-18T17:34:00.160Z,8.75
2023-04-18T17:36:29.853Z,9.43
2023-04-18T17:38:56.494Z,7.07
2023-04-18T17:41:23.370Z,9.13
2023-04-18T17:43:53.489Z,8.82
2023-04-18T17:46:20.149Z,8.05
2023-04-18T17:48:47.140Z,7.47
2023-04-18T17:51:16.326Z,7.43
2023-04-18T17:53:43.047Z,9.77
2023-04-18T17:56:10.204Z,10.05
2023-04-18T17:58:36.837Z,9.25
2023-04-18T18:01:03.564Z,10.27
2023-04-18T18:03:30.398Z,8.75
2023-04-18T18:05:57.148Z,8.68
2023-04-18T18:08:24.332Z,11.73
2023-04-18T18:10:50.982Z,10.27
2023-04-18T18:13:17.550Z,13.30
2023-04-18T18:15:46.862Z,11.57
2023-04-18T18:18:13.554Z,8.25
2023-04-18T18:20:43.344Z,8.83
2023-04-18T18:23:09.991Z,11.35
2023-04-18T18:25:37.848Z,15.23
2023-04-18T18:28:04.714Z,9.20
2023-04-18T18:30:31.543Z,11.20
2023-04-18T18:32:58.385Z,11.23
2023-04-18T18:35:25.014Z,8.57
2023-04-18T18:37:51.660Z,8.60
2023-04-18T18:40:18.461Z,9.30
2023-04-18T18:42:45.165Z,7.97
2023-04-18T18:45:11.942Z,8.35
2023-04-18T18:47:40.079Z,10.63
2023-04-18T18:50:07.768Z,7.75
2023-04-18T18:52:34.509Z,8.40
2023-04-18T18:55:01.616Z,11.85
2023-04-18T18:57:28.360Z,10.20
2023-04-18T18:59:55.943Z,8.18
2023-04-18T19:02:23.043Z,10.30
2023-04-18T19:04:49.901Z,10.20
2023-04-18T19:07:16.612Z,11.30
2023-04-18T19:09:43.298Z,9.00
2023-04-18T19:12:10.076Z,8.60
2023-04-18T19:14:36.694Z,9.18
2023-04-18T19:17:03.510Z,10.25
2023-04-18T19:19:30.175Z,11.40
2023-04-18T19:21:57.893Z,10.52
2023-04-18T19:24:24.567Z,11.13
2023-04-18T19:26:51.624Z,17.23
2023-04-18T19:29:18.266Z,11.85
2023-04-18T19:31:45.025Z,9.40
2023-04-18T19:34:12.118Z,11.95
2023-04-18T19:36:38.767Z,11.63
2023-04-18T19:39:05.714Z,12.70
2023-04-18T19:41:32.289Z,13.60
2023-04-18T19:43:58.961Z,16.75
2023-04-18T19:46:26.318Z,12.63
2023-04-18T19:48:52.949Z,13.27
2023-04-18T19:51:20.909Z,14.52
2023-04-18T19:53:47.576Z,15.73
2023-04-18T19:56:15.032Z,12.50
2023-04-18T19:58:46.745Z,13.52
2023-04-18T20:01:14.696Z,10.88
2023-04-18T20:03:45.031Z,11.35
2023-04-18T20:06:11.899Z,10.82
2023-04-18T20:08:44.586Z,9.55
2023-04-18T20:11:12.458Z,9.13
2023-04-18T20:13:39.121Z,10.70
2023-04-18T20:16:07.445Z,10.35
2023-04-18T20:18:35.941Z,11.27
2023-04-18T20:21:03.819Z,10.02
2023-04-18T20:23:30.538Z,10.70
2023-04-18T20:25:57.182Z,10.88
2023-04-18T20:28:26.696Z,13.70
2023-04-18T20:30:53.487Z,10.43
2023-04-18T20:33:20.134Z,10.40
2023-04-18T20:35:49.149Z,8.68
2023-04-18T20:38:15.767Z,12.70
2023-04-18T20:40:45.172Z,10.55
2023-04-18T20:43:17.514Z,11.05
2023-04-18T20:45:44.341Z,14.20
2023-04-18T20:48:10.907Z,9.05
2023-04-18T20:50:40.203Z,14.50
2023-04-18T20:53:06.816Z,11.05
2023-04-18T20:55:33.411Z,10.82
2023-04-18T20:58:00.081Z,11.65
2023-04-18T21:00:26.851Z,13.50
2023-04-18T21:02:53.557Z,12.13
2023-04-18T21:05:20.213Z,10.30
2023-04-18T21:07:46.800Z,11.50
2023-04-18T21:10:13.426Z,13.25
2023-04-18T21:12:40.067Z,11.98
2023-04-18T21:15:07.254Z,11.63
2023-04-18T21:17:33.908Z,8.95
2023-04-18T21:20:00.685Z,10.07
2023-04-18T21:22:27.344Z,10.35
2023-04-18T21:24:56.507Z,10.35
2023-04-18T21:27:23.110Z,11.80
2023-04-18T21:29:49.691Z,13.43
2023-04-18T21:32:16.331Z,10.25
2023-04-18T21:34:42.999Z,13.60
2023-04-18T21:37:09.619Z,10.23
2023-04-18T21:39:38.182Z,12.85
2023-04-18T21:42:04.821Z,11.57
2023-04-18T21:44:31.480Z,10.07
2023-04-18T21:46:58.096Z,10.90
2023-04-18T21:49:24.819Z,11.18
2023-04-18T21:51:51.499Z,10.35
2023-04-18T21:54:18.108Z,11.73
2023-04-18T21:56:44.805Z,9.77
2023-04-18T21:59:11.465Z,13.25
2023-04-18T22:01:38.516Z,12.40
2023-04-18T22:04:06.146Z,11.20
2023-04-18T22:06:33.423Z,9.98
2023-04-18T22:09:01.057Z,14.93
2023-04-18T22:11:28.617Z,14.48
2023-04-18T22:13:55.263Z,12.93
2023-04-18T22:16:22.248Z,10.02
2023-04-18T22:18:51.788Z,13.80
2023-04-18T22:21:18.507Z,11.07
2023-04-18T22:23:45.152Z,11.93
2023-04-18T22:26:11.854Z,10.85
2023-04-18T22:28:38.545Z,11.95
2023-04-18T22:31:05.445Z,11.02
2023-04-18T22:33:32.097Z,14.13
2023-04-18T22:35:58.799Z,12.50
2023-04-18T22:38:25.840Z,12.05
2023-04-18T22:40:52.468Z,15.75
2023-04-18T22:43:23.776Z,11.45
2023-04-18T22:45:51.058Z,10.02
2023-04-18T22:48:18.002Z,11.57
2023-04-18T22:50:44.581Z,9.93
2023-04-18T22:53:11.361Z,9.05
2023-04-18T22:55:42.048Z,12.05
2023-04-18T22:58:12.001Z,14.38
2023-04-18T23:00:38.847Z,13.98
2023-04-18T23:03:05.628Z,11.40
2023-04-18T23:05:32.813Z,14.65
2023-04-18T23:08:00.609Z,13.40
2023-04-18T23:10:27.444Z,11.10
2023-04-18T23:12:54.081Z,9.93
2023-04-18T23:15:22.909Z,11.27
2023-04-18T23:17:52.842Z,11.93
2023-04-18T23:20:20.387Z,13.02
2023-04-18T23:22:50.058Z,11.52
2023-04-18T23:25:16.776Z,16.00
2023-04-18T23:27:43.583Z,12.00
2023-04-18T23:30:10.627Z,15.05
2023-04-18T23:32:37.301Z,13.68
2023-04-18T23:35:06.038Z,11.75
2023-04-18T23:37:32.862Z,10.68
2023-04-18T23:40:02.841Z,12.15
2023-04-18T23:42:29.484Z,12.32
2023-04-18T23:44:57.803Z,14.60
2023-04-18T23:47:24.492Z,10.75
2023-04-18T23:49:51.131Z,11.13
2023-04-18T23:52:17.732Z,19.70
2023-04-18T23:54:45.352Z,12.25
2023-04-18T23:57:11.915Z,10.63
2023-04-18T23:59:38.521Z,12.23
